Time;durP1;ratioP1;P1;durP2;ratioP2;P2;SDS_P1;SDS_P2;PMS_P1;PMS_P2;Temp;Humidity;BMP_temperature;BMP_pressure;BME280_temperature;BME280_humidity;BME280_pressure;Samples;Min_cycle;Max_cycle;Signal;HPM_P1;HPM_P2
2022/07/18 00:02:18;;;;;;;8.68;5.50;;;;;;;24.97;43.85;102544.59;4719147;30;20043;-83
2022/07/18 00:04:44;;;;;;;6.55;4.97;;;;;;;24.89;43.90;102536.59;4715741;30;20580;-83
2022/07/18 00:07:12;;;;;;;7.45;4.68;;;;;;;24.94;43.87;102550.25;4715646;30;20048;-82
2022/07/18 00:09:42;;;;;;;6.55;4.90;;;;;;;24.91;43.73;102561.25;4717740;30;20482;-82
2022/07/18 00:12:08;;;;;;;;;;;;;;;24.99;43.76;102553.25;4714955;30;20048;-82
2022/07/18 00:14:35;;;;;;;6.80;4.57;;;;;;;25.00;43.82;102560.25;4718138;30;20042;-82
2022/07/18 00:17:01;;;;;;;6.75;5.20;;;;;;;24.94;43.89;102552.91;4716094;30;20052;-82
2022/07/18 00:19:28;;;;;;;8.05;5.05;;;;;;;24.96;43.71;102546.44;4711404;30;20017;-82
2022/07/18 00:21:53;;;;;;;7.13;4.97;;;;;;;24.91;43.83;102543.44;4716063;30;20071;-82
2022/07/18 00:24:19;;;;;;;6.00;4.47;;;;;;;24.93;43.82;102543.25;4716092;30;20052;-83
2022/07/18 00:26:44;;;;;;;7.18;4.90;;;;;;;24.96;43.81;102549.09;4720475;30;20714;-84
2022/07/18 00:29:10;;;;;;;5.97;4.60;;;;;;;24.94;43.88;102536.91;4726729;30;20060;-83
2022/07/18 00:31:38;;;;;;;6.45;5.00;;;;;;;24.95;43.62;102530.56;4699825;30;20413;-83
2022/07/18 00:34:03;;;;;;;7.18;5.07;;;;;;;24.98;43.68;102530.25;4722216;30;20044;-83
2022/07/18 00:36:30;;;;;;;8.85;5.20;;;;;;;24.93;43.72;102528.09;4717199;30;20114;-83
2022/07/18 00:38:56;;;;;;;6.93;4.53;;;;;;;24.95;43.91;102517.25;4712972;30;20040;-82
2022/07/18 00:41:22;;;;;;;8.70;5.53;;;;;;;24.86;43.77;102511.16;4717395;30;20055;-83
2022/07/18 00:43:48;;;;;;;7.18;4.72;;;;;;;24.94;43.65;102523.59;4717291;30;20045;-83
2022/07/18 00:46:14;;;;;;;5.47;4.38;;;;;;;24.94;43.80;102524.41;4718544;30;20037;-83
2022/07/18 00:48:41;;;;;;;7.97;4.95;;;;;;;24.89;43.78;102515.28;4716928;30;20052;-83
2022/07/18 00:51:07;;;;;;;7.07;5.00;;;;;;;24.91;43.87;102519.44;4717838;30;20064;-81
2022/07/18 00:53:32;;;;;;;6.78;5.22;;;;;;;24.92;43.97;102528.25;4720822;30;20048;-82
2022/07/18 00:56:00;;;;;;;7.25;5.15;;;;;;;24.88;43.82;102519.78;4718738;30;20049;-82
2022/07/18 00:58:26;;;;;;;7.47;5.15;;;;;;;24.93;43.74;102522.75;4717148;30;21136;-83
2022/07/18 01:03:36;;;;;;;7.53;5.05;;;;;;;24.92;44.05;102520.28;4722323;30;20195;-82
2022/07/18 01:06:01;;;;;;;7.15;5.32;;;;;;;24.91;43.74;102524.78;4718640;30;20716;-83
2022/07/18 01:08:27;;;;;;;8.63;5.05;;;;;;;24.93;43.78;102527.25;4719008;30;20052;-83
2022/07/18 01:10:54;;;;;;;7.50;5.63;;;;;;;24.91;43.97;102530.09;4717107;30;20141;-84
2022/07/18 01:13:20;;;;;;;9.52;5.80;;;;;;;24.92;43.58;102521.09;4716638;30;20516;-84
2022/07/18 01:15:47;;;;;;;9.48;5.18;;;;;;;24.88;43.84;102513.63;4716339;30;20045;-84
2022/07/18 01:18:12;;;;;;;7.72;4.97;;;;;;;24.91;43.70;102515.94;4717771;30;20057;-84
2022/07/18 01:20:38;;;;;;;7.38;5.32;;;;;;;24.94;43.88;102513.75;4718588;30;20052;-85
2022/07/18 01:23:04;;;;;;;8.77;5.53;;;;;;;24.94;43.82;102519.09;4715433;30;20128;-84
2022/07/18 01:25:29;;;;;;;6.00;4.93;;;;;;;24.92;43.62;102506.94;4714204;30;20056;-83
2022/07/18 01:27:56;;;;;;;7.65;5.07;;;;;;;24.90;43.59;102498.31;4717824;30;20404;-84
2022/07/18 01:30:23;;;;;;;6.70;4.78;;;;;;;24.92;43.62;102497.13;4716954;30;20053;-83
2022/07/18 01:32:59;;;;;;;7.85;5.63;;;;;;;24.92;43.55;102504.28;4721054;30;20045;-83
2022/07/18 01:35:25;;;;;;;7.80;5.35;;;;;;;24.90;43.78;102499.13;4718168;30;20396;-82
2022/07/18 01:37:56;;;;;;;7.97;4.97;;;;;;;24.89;43.78;102516.13;4715300;30;20044;-83
2022/07/18 01:40:22;;;;;;;7.72;4.53;;;;;;;24.90;43.67;102515.13;4713761;30;20386;-82
2022/07/18 01:42:48;;;;;;;8.57;5.22;;;;;;;24.88;43.84;102514.47;4719238;30;20154;-82
2022/07/18 01:45:14;;;;;;;6.50;4.78;;;;;;;24.87;43.67;102502.16;4717229;30;21828;-82
2022/07/18 01:47:40;;;;;;;7.40;4.85;;;;;;;24.88;43.64;102503.81;4720156;30;20500;-83
2022/07/18 01:50:06;;;;;;;7.20;5.00;;;;;;;24.89;43.84;102500.13;4718332;30;20052;-82
2022/07/18 01:52:32;;;;;;;7.65;5.60;;;;;;;24.83;43.72;102484.03;4718746;30;20093;-82
2022/07/18 01:54:57;;;;;;;9.23;5.53;;;;;;;24.90;43.68;102484.97;4715326;30;20137;-82
2022/07/18 01:57:23;;;;;;;7.15;5.25;;;;;;;24.92;43.72;102481.13;4716522;30;20559;-81
2022/07/18 01:59:49;;;;;;;7.38;5.15;;;;;;;24.86;43.70;102486.34;4718191;30;20646;-82
2022/07/18 02:02:15;;;;;;;6.78;5.00;;;;;;;24.89;43.79;102488.66;4716632;30;20092;-81
2022/07/18 02:04:59;;;;;;;6.70;4.85;;;;;;;24.85;43.59;102490.00;4717940;30;20072;-83
2022/07/18 02:07:29;;;;;;;8.55;5.18;;;;;;;24.89;43.83;102496.63;4718749;30;20041;-82
2022/07/18 02:09:55;;;;;;;8.43;5.28;;;;;;;24.89;43.70;102499.31;4714440;30;20159;-82
2022/07/18 02:12:21;;;;;;;7.07;4.80;;;;;;;24.84;43.79;102499.00;4717495;30;20057;-82
2022/07/18 02:14:46;;;;;;;7.88;5.10;;;;;;;24.84;43.56;102493.66;4703937;30;20612;-83
2022/07/18 02:17:12;;;;;;;7.75;5.28;;;;;;;24.88;43.84;102502.97;4720658;30;20099;-82
2022/07/18 02:19:37;;;;;;;8.50;5.30;;;;;;;24.86;43.85;102502.31;4717640;30;20052;-82
2022/07/18 02:22:03;;;;;;;6.57;5.18;;;;;;;24.90;43.38;102495.63;4721325;30;20072;-82
2022/07/18 02:24:28;;;;;;;6.43;4.50;;;;;;;24.88;43.50;102492.31;4719801;30;20048;-81
2022/07/18 02:26:54;;;;;;;6.82;4.93;;;;;;;24.86;43.41;102486.34;4716304;30;20045;-82
2022/07/18 02:29:20;;;;;;;6.68;5.00;;;;;;;24.89;43.74;102481.47;4714320;30;20543;-82
2022/07/18 02:31:45;;;;;;;7.05;5.03;;;;;;;24.84;43.76;102481.19;4717371;30;20048;-82
2022/07/18 02:34:11;;;;;;;6.88;4.95;;;;;;;24.83;43.60;102476.03;4720074;30;20045;-82
2022/07/18 02:36:38;;;;;;;6.45;4.57;;;;;;;24.84;43.69;102486.50;4716784;30;20551;-83
2022/07/18 02:39:05;;;;;;;7.85;5.20;;;;;;;24.83;43.52;102470.69;4719306;30;20086;-83
2022/07/18 02:41:30;;;;;;;6.70;4.78;;;;;;;24.84;43.83;102478.50;4712680;30;20064;-83
2022/07/18 02:43:56;;;;;;;6.65;4.95;;;;;;;24.85;43.65;102466.84;4717777;30;20045;-83
2022/07/18 02:46:21;;;;;;;6.97;5.10;;;;;;;24.84;43.70;102472.34;4720475;30;20036;-82
2022/07/18 02:48:47;;;;;;;6.47;4.60;;;;;;;24.87;43.24;102464.00;4714203;30;20052;-83
2022/07/18 02:51:12;;;;;;;6.85;5.15;;;;;;;24.85;43.69;102461.53;4719252;30;20057;-82
2022/07/18 02:53:38;;;;;;;7.95;5.22;;;;;;;24.82;43.63;102461.88;4714854;30;20047;-82
2022/07/18 02:56:03;;;;;;;6.97;5.20;;;;;;;24.81;43.62;102456.72;4717454;30;20496;-82
2022/07/18 02:58:29;;;;;;;7.57;5.28;;;;;;;24.83;43.58;102476.03;4712503;30;20055;-83
2022/07/18 03:00:55;;;;;;;7.47;4.97;;;;;;;24.81;43.42;102476.19;4717178;30;20075;-83
2022/07/18 03:03:20;;;;;;;6.55;4.80;;;;;;;24.85;43.56;102476.69;4711127;30;20609;-82
2022/07/18 03:05:46;;;;;;;7.80;5.13;;;;;;;24.84;43.72;102477.69;4714160;30;20128;-82
2022/07/18 03:08:11;;;;;;;8.23;5.45;;;;;;;24.83;43.46;102473.38;4716755;30;20051;-83
2022/07/18 03:10:37;;;;;;;6.32;4.78;;;;;;;24.83;43.45;102476.84;4714955;30;20121;-83
2022/07/18 03:13:02;;;;;;;6.40;4.68;;;;;;;24.84;43.38;102465.19;4716537;30;20048;-82
2022/07/18 03:15:28;;;;;;;6.57;5.22;;;;;;;24.81;43.65;102472.72;4719310;30;20066;-83
2022/07/18 03:17:53;;;;;;;7.75;4.70;;;;;;;24.79;43.73;102478.22;4716522;30;20126;-82
2022/07/18 03:20:19;;;;;;;7.43;5.32;;;;;;;24.80;43.66;102469.22;4723072;30;20055;-83
2022/07/18 03:22:44;;;;;;;8.00;4.80;;;;;;;24.80;43.74;102457.72;4719737;30;20488;-83
2022/07/18 03:25:10;;;;;;;6.93;4.90;;;;;;;24.82;43.45;102455.72;4719297;30;20048;-83
2022/07/18 03:27:35;;;;;;;7.28;4.80;;;;;;;24.80;43.28;102449.75;4719751;30;20106;-83
2022/07/18 03:30:01;;;;;;;7.13;4.95;;;;;;;24.80;43.43;102445.25;4717212;30;20059;-84
2022/07/18 03:32:26;;;;;;;10.15;4.97;;;;;;;24.80;43.45;102450.56;4714684;30;20056;-84
2022/07/18 03:34:52;;;;;;;6.95;4.78;;;;;;;24.80;43.95;102455.91;4713669;30;20048;-85
2022/07/18 03:37:17;;;;;;;6.97;5.00;;;;;;;24.77;43.45;102444.72;4718631;30;20052;-84
2022/07/18 03:39:43;;;;;;;6.85;5.03;;;;;;;24.78;43.80;102436.59;4717848;30;20040;-84
2022/07/18 03:42:08;;;;;;;8.45;5.10;;;;;;;24.78;43.53;102428.59;4704501;30;20049;-84
2022/07/18 03:44:34;;;;;;;7.57;4.90;;;;;;;24.76;43.41;102416.44;4717521;30;20044;-84
2022/07/18 03:46:59;;;;;;;8.10;5.15;;;;;;;24.77;43.50;102404.75;4714794;30;20044;-84
2022/07/18 03:49:25;;;;;;;6.22;4.78;;;;;;;24.76;43.57;102411.94;4717046;30;20044;-84
2022/07/18 03:51:50;;;;;;;6.72;4.78;;;;;;;24.80;43.38;102418.59;4718295;30;20048;-83
2022/07/18 03:54:16;;;;;;;6.72;5.15;;;;;;;24.79;43.60;102432.91;4714822;30;20040;-84
2022/07/18 03:56:41;;;;;;;7.63;5.30;;;;;;;24.81;43.42;102449.56;4712584;30;20409;-83
2022/07/18 03:59:07;;;;;;;7.45;5.10;;;;;;;24.73;43.49;102440.75;4716063;30;20052;-84
2022/07/18 04:01:32;;;;;;;7.15;5.13;;;;;;;24.74;43.69;102440.59;4717532;30;20098;-83
2022/07/18 04:03:58;;;;;;;6.18;4.60;;;;;;;24.77;43.40;102434.06;4717992;30;20041;-82
2022/07/18 04:06:24;;;;;;;7.78;5.35;;;;;;;24.75;43.60;102433.41;4713304;30;20053;-82
2022/07/18 04:08:49;;;;;;;7.35;5.15;;;;;;;24.74;43.48;102435.25;4720611;30;20063;-83
2022/07/18 04:11:15;;;;;;;7.13;4.57;;;;;;;24.77;43.58;102436.72;4716619;30;20052;-83
2022/07/18 04:13:40;;;;;;;5.80;4.65;;;;;;;24.75;43.58;102436.09;4725183;30;20048;-83
2022/07/18 04:16:06;;;;;;;7.80;4.70;;;;;;;24.67;43.32;102429.81;4718424;30;20071;-83
2022/07/18 04:18:31;;;;;;;8.45;5.50;;;;;;;24.75;43.56;102426.25;4717460;30;20502;-84
2022/07/18 04:20:57;;;;;;;7.65;4.90;;;;;;;24.76;43.34;102424.41;4703135;30;20056;-84
2022/07/18 04:23:22;;;;;;;8.15;5.20;;;;;;;24.72;43.57;102413.28;4717019;30;20415;-85
2022/07/18 04:25:48;;;;;;;7.22;4.88;;;;;;;24.76;43.53;102409.25;4716758;30;20118;-84
2022/07/18 04:28:14;;;;;;;6.93;5.07;;;;;;;24.74;43.39;102407.78;4723727;30;20044;-82
2022/07/18 04:30:41;;;;;;;7.72;5.03;;;;;;;24.74;43.52;102407.78;4717632;30;20090;-83
2022/07/18 04:33:08;;;;;;;6.60;4.63;;;;;;;24.75;43.34;102406.78;4715898;30;21297;-82
2022/07/18 04:35:38;;;;;;;6.18;4.60;;;;;;;24.71;43.53;102395.66;4714434;30;20049;-82
2022/07/18 04:38:07;;;;;;;7.50;4.90;;;;;;;24.73;43.57;102401.63;4715941;30;20550;-82
2022/07/18 04:40:33;;;;;;;6.10;4.60;;;;;;;24.71;43.65;102400.97;4723912;30;20057;-83
2022/07/18 04:42:59;;;;;;;6.03;4.97;;;;;;;24.66;43.60;102393.50;4720929;30;20052;-84
2022/07/18 04:45:24;;;;;;;6.70;4.85;;;;;;;24.69;43.23;102398.50;4716472;30;20048;-82
2022/07/18 04:47:51;;;;;;;7.22;4.60;;;;;;;24.71;43.52;102399.13;4712789;30;20045;-82
2022/07/18 04:50:17;;;;;;;7.05;5.30;;;;;;;24.72;43.57;102410.63;4722651;30;20041;-83
2022/07/18 04:52:44;;;;;;;7.47;5.18;;;;;;;24.71;43.65;102401.81;4717565;30;20044;-84
2022/07/18 04:55:11;;;;;;;6.75;4.80;;;;;;;24.69;43.65;102398.50;4721041;30;20048;-83
2022/07/18 04:57:37;;;;;;;8.02;5.10;;;;;;;24.71;43.44;102411.63;4718915;30;20045;-82
2022/07/18 05:00:06;;;;;;;6.68;4.88;;;;;;;24.69;43.55;102400.31;4714440;30;20644;-83
2022/07/18 05:02:31;;;;;;;5.88;4.35;;;;;;;24.71;43.51;102404.47;4717497;30;20507;-82
2022/07/18 05:04:57;;;;;;;7.35;5.05;;;;;;;24.71;43.59;102403.63;4715869;30;20087;-83
2022/07/18 05:07:22;;;;;;;6.80;4.72;;;;;;;24.69;43.65;102406.47;4724092;30;20041;-83
2022/07/18 05:09:48;;;;;;;7.03;4.65;;;;;;;24.69;43.54;102390.50;4721340;30;20040;-83
2022/07/18 05:12:13;;;;;;;5.95;4.55;;;;;;;24.66;43.62;102388.19;4716900;30;20052;-82
2022/07/18 05:14:39;;;;;;;7.28;5.13;;;;;;;24.67;43.66;102386.34;4721649;30;20491;-83
2022/07/18 05:17:04;;;;;;;7.35;5.43;;;;;;;24.67;43.53;102384.53;4719998;30;20057;-84
2022/07/18 05:19:30;;;;;;;6.68;4.68;;;;;;;24.67;43.57;102387.19;4719539;30;20509;-83
2022/07/18 05:21:55;;;;;;;7.50;5.05;;;;;;;24.67;43.54;102383.69;4717539;30;20052;-83
2022/07/18 05:24:21;;;;;;;6.07;4.50;;;;;;;24.68;43.73;102374.69;4713022;30;20071;-83
2022/07/18 05:26:47;;;;;;;8.38;4.70;;;;;;;24.71;43.43;102391.16;4710680;30;20091;-85
2022/07/18 05:29:12;;;;;;;6.20;4.53;;;;;;;24.64;43.74;102376.06;4716289;30;20576;-84
2022/07/18 05:31:40;;;;;;;6.78;4.82;;;;;;;24.66;43.50;102384.69;4718642;30;20054;-84
2022/07/18 05:34:05;;;;;;;7.43;4.55;;;;;;;24.69;43.50;102387.84;4716494;30;20032;-84
2022/07/18 05:36:31;;;;;;;6.22;4.65;;;;;;;24.68;43.54;102386.19;4718680;30;20063;-83
2022/07/18 05:38:57;;;;;;;8.27;4.70;;;;;;;24.66;43.42;102374.88;4717407;30;20187;-84
2022/07/18 05:41:22;;;;;;;7.38;5.10;;;;;;;24.70;43.36;102384.16;4718457;30;20052;-84
2022/07/18 05:43:48;;;;;;;6.55;4.95;;;;;;;24.68;43.43;102369.38;4722309;30;20063;-84
2022/07/18 05:46:13;;;;;;;6.75;4.32;;;;;;;24.67;43.55;102365.03;4716506;30;20481;-83
2022/07/18 05:48:39;;;;;;;8.25;5.00;;;;;;;24.67;43.50;102359.72;4714279;30;20044;-84
2022/07/18 05:51:07;;;;;;;5.97;4.40;;;;;;;24.70;43.17;102356.69;4727666;30;20063;-84
2022/07/18 05:53:32;;;;;;;8.40;4.70;;;;;;;24.63;43.41;102342.44;4720014;30;20047;-83
2022/07/18 05:55:58;;;;;;;5.95;4.35;;;;;;;24.69;43.24;102339.88;4712809;30;20049;-83
2022/07/18 05:58:23;;;;;;;8.20;4.70;;;;;;;24.64;43.29;102336.94;4720552;30;20068;-83
2022/07/18 06:00:49;;;;;;;7.20;4.57;;;;;;;24.64;43.26;102331.59;4716571;30;20314;-83
2022/07/18 06:03:14;;;;;;;7.30;4.65;;;;;;;24.65;43.35;102343.09;4729385;30;20056;-83
2022/07/18 06:05:40;;;;;;;6.18;4.53;;;;;;;24.65;43.34;102332.44;4717635;30;20051;-83
2022/07/18 06:08:06;;;;;;;6.00;4.35;;;;;;;24.63;43.20;102332.59;4716211;30;20508;-84
2022/07/18 06:10:31;;;;;;;5.60;3.70;;;;;;;24.65;43.41;102346.56;4714524;30;20080;-83
2022/07/18 06:12:57;;;;;;;5.65;4.03;;;;;;;24.65;43.24;102337.75;4714423;30;20147;-83
2022/07/18 06:15:23;;;;;;;7.43;4.55;;;;;;;24.67;43.04;102346.41;4716206;30;20459;-82
2022/07/18 06:17:49;;;;;;;6.35;4.20;;;;;;;24.69;43.07;102345.22;4716351;30;20068;-83
2022/07/18 06:20:15;;;;;;;6.13;4.40;;;;;;;24.74;42.90;102344.69;4720724;30;20113;-82
2022/07/18 06:22:41;;;;;;;5.20;4.07;;;;;;;24.67;42.95;102341.91;4719167;30;20737;-83
2022/07/18 06:25:07;;;;;;;6.47;4.10;;;;;;;24.67;42.83;102346.41;4718489;30;20047;-83
2022/07/18 06:27:33;;;;;;;5.95;4.22;;;;;;;24.70;42.96;102354.88;4714710;30;20056;-83
2022/07/18 06:29:59;;;;;;;7.03;4.13;;;;;;;24.73;42.91;102358.19;4715597;30;20084;-82
2022/07/18 06:32:24;;;;;;;5.47;3.80;;;;;;;24.70;42.80;102357.53;4716360;30;20048;-83
2022/07/18 06:34:50;;;;;;;5.03;3.70;;;;;;;24.71;42.77;102353.84;4712031;30;20048;-83
2022/07/18 06:37:15;;;;;;;5.80;3.83;;;;;;;24.71;42.76;102366.34;4711529;30;20045;-84
2022/07/18 06:39:41;;;;;;;7.22;4.55;;;;;;;24.69;42.09;102366.53;4714132;30;20570;-83
2022/07/18 06:42:06;;;;;;;5.28;3.70;;;;;;;24.70;42.92;102370.00;4716102;30;20044;-82
2022/07/18 06:44:32;;;;;;;7.75;4.18;;;;;;;24.73;42.79;102369.66;4713883;30;20103;-83
2022/07/18 06:46:59;;;;;;;5.13;4.05;;;;;;;24.70;42.87;102370.84;4697489;30;20067;-83
2022/07/18 06:49:25;;;;;;;5.05;3.70;;;;;;;24.68;42.94;102374.69;4718927;30;20048;-83
2022/07/18 06:51:51;;;;;;;5.82;4.30;;;;;;;24.68;42.92;102366.69;4716859;30;20462;-82
2022/07/18 06:54:17;;;;;;;5.00;3.50;;;;;;;24.74;42.92;102378.47;4714202;30;20052;-83
2022/07/18 06:56:42;;;;;;;6.10;4.03;;;;;;;24.71;43.07;102377.00;4717859;30;20048;-83
2022/07/18 06:59:08;;;;;;;6.80;3.92;;;;;;;24.69;43.11;102369.19;4716905;30;20138;-83
2022/07/18 07:01:33;;;;;;;5.43;3.72;;;;;;;24.78;42.86;102375.31;4719018;30;20048;-81
2022/07/18 07:03:59;;;;;;;6.53;4.18;;;;;;;24.76;42.91;102379.97;4717960;30;20056;-82
2022/07/18 07:06:24;;;;;;;4.95;3.22;;;;;;;24.79;42.90;102387.63;4716345;30;20049;-82
2022/07/18 07:08:50;;;;;;;4.88;3.95;;;;;;;24.80;42.93;102377.81;4711568;30;20087;-81
2022/07/18 07:11:15;;;;;;;6.82;4.13;;;;;;;24.79;42.91;102370.81;4715446;30;20063;-82
2022/07/18 07:13:41;;;;;;;5.35;4.07;;;;;;;24.83;42.80;102372.94;4715598;30;20079;-81
2022/07/18 07:16:06;;;;;;;5.72;4.07;;;;;;;24.81;43.13;102372.28;4710034;30;20076;-81
2022/07/18 07:18:32;;;;;;;5.82;4.25;;;;;;;24.81;43.03;102368.81;4711438;30;20056;-81
2022/07/18 07:20:58;;;;;;;5.68;3.90;;;;;;;24.80;43.14;102373.31;4712840;30;20045;-83
2022/07/18 07:23:23;;;;;;;6.32;3.58;;;;;;;24.76;42.99;102365.81;4714628;30;20055;-82
2022/07/18 07:25:49;;;;;;;4.60;3.58;;;;;;;24.83;43.28;102369.44;4720799;30;20057;-84
2022/07/18 07:28:14;;;;;;;5.80;3.70;;;;;;;24.87;43.14;102373.41;4718279;30;20040;-83
2022/07/18 07:30:41;;;;;;;5.13;3.80;;;;;;;24.85;42.84;102370.94;4715034;30;20054;-85
2022/07/18 07:33:07;;;;;;;7.15;4.22;;;;;;;24.84;42.58;102363.94;4717541;30;20036;-84
2022/07/18 07:35:33;;;;;;;5.28;3.40;;;;;;;24.87;42.10;102360.09;4714739;30;20048;-84
2022/07/18 07:37:58;;;;;;;4.50;3.25;;;;;;;24.89;42.41;102372.22;4715682;30;20090;-85
2022/07/18 07:40:26;;;;;;;5.88;3.80;;;;;;;24.91;42.71;102367.56;4711273;30;20741;-85
2022/07/18 07:42:52;;;;;;;4.68;3.58;;;;;;;24.91;42.83;102367.56;4714412;30;20057;-84
2022/07/18 07:45:18;;;;;;;5.22;3.83;;;;;;;24.93;42.28;102364.72;4716924;30;20055;-84
2022/07/18 07:47:44;;;;;;;7.03;3.25;;;;;;;24.94;42.51;102371.69;4713881;30;20090;-85
2022/07/18 07:50:11;;;;;;;5.05;3.30;;;;;;;24.93;42.75;102359.38;4710493;30;20085;-85
2022/07/18 07:52:37;;;;;;;4.93;3.45;;;;;;;24.98;42.68;102357.03;4716018;30;20041;-84
2022/07/18 07:55:04;;;;;;;7.15;4.13;;;;;;;24.99;42.54;102358.69;4710427;30;20168;-84
2022/07/18 07:57:30;;;;;;;6.20;3.72;;;;;;;25.03;42.55;102357.34;4712309;30;20594;-84
2022/07/18 07:59:55;;;;;;;6.50;3.50;;;;;;;25.00;42.61;102342.56;4712677;30;20064;-83
2022/07/18 08:02:21;;;;;;;7.10;3.28;;;;;;;25.04;42.39;102347.53;4716309;30;20052;-84
2022/07/18 08:04:46;;;;;;;6.22;3.80;;;;;;;25.05;42.52;102346.50;4717779;30;20040;-84
2022/07/18 08:07:12;;;;;;;4.55;3.28;;;;;;;25.04;42.76;102344.84;4715542;30;20504;-84
2022/07/18 08:09:37;;;;;;;4.18;3.00;;;;;;;25.04;42.55;102345.69;4716792;30;20902;-84
2022/07/18 08:12:04;;;;;;;6.00;3.42;;;;;;;25.05;42.36;102339.34;4717970;30;20096;-84
2022/07/18 08:14:31;;;;;;;5.05;3.47;;;;;;;25.07;42.25;102333.84;4715799;30;20040;-84
2022/07/18 08:16:57;;;;;;;5.47;3.00;;;;;;;25.06;42.39;102333.00;4718671;30;20733;-85
2022/07/18 08:19:22;;;;;;;6.43;3.72;;;;;;;25.09;42.19;102332.66;4720477;30;20110;-84
2022/07/18 08:21:48;;;;;;;4.68;3.17;;;;;;;25.08;42.22;102336.31;4721487;30;20056;-84
2022/07/18 08:24:14;;;;;;;3.83;3.03;;;;;;;25.09;42.34;102340.63;4712887;30;20059;-83
2022/07/18 08:26:42;;;;;;;5.45;3.33;;;;;;;25.11;42.15;102332.47;4697566;30;20074;-83
2022/07/18 08:29:08;;;;;;;4.32;2.92;;;;;;;25.07;41.98;102334.66;4710519;30;20642;-83
2022/07/18 08:31:34;;;;;;;4.28;2.97;;;;;;;25.07;42.03;102332.00;4710357;30;20059;-86
2022/07/18 08:34:00;;;;;;;4.63;3.45;;;;;;;25.10;42.04;102334.31;4717222;30;20063;-87
2022/07/18 08:36:26;;;;;;;5.22;3.28;;;;;;;25.12;42.12;102332.28;4716751;30;20086;-86
2022/07/18 08:38:51;;;;;;;6.70;3.33;;;;;;;25.13;42.39;102341.94;4710455;30;20076;-86
2022/07/18 08:41:17;;;;;;;5.05;2.95;;;;;;;25.16;42.54;102357.59;4717374;30;20824;-85
2022/07/18 08:43:45;;;;;;;4.00;3.10;;;;;;;25.14;42.32;102346.28;4716301;30;20584;-84
2022/07/18 08:46:11;;;;;;;9.75;2.70;;;;;;;25.11;42.50;102332.47;4720821;30;20484;-86
2022/07/18 08:48:39;;;;;;;5.40;3.30;;;;;;;25.15;42.27;102326.63;4717523;30;20059;-86
2022/07/18 08:51:05;;;;;;;6.07;3.20;;;;;;;25.17;42.28;102331.78;4713802;30;20064;-86
2022/07/18 08:53:33;;;;;;;4.82;3.20;;;;;;;25.18;42.38;102328.09;4726902;30;20053;-86
2022/07/18 08:55:59;;;;;;;5.72;3.60;;;;;;;25.18;42.47;102331.59;4718248;30;20066;-86
2022/07/18 08:58:25;;;;;;;6.53;3.38;;;;;;;25.19;42.63;102337.75;4716292;30;20044;-86
2022/07/18 09:00:51;;;;;;;4.90;3.15;;;;;;;25.17;42.25;102329.94;4718537;30;20048;-86
2022/07/18 09:03:17;;;;;;;4.57;2.80;;;;;;;25.21;42.42;102333.88;4712470;30;20052;-85
2022/07/18 09:05:42;;;;;;;5.47;3.35;;;;;;;25.18;42.67;102322.75;4723114;30;20048;-86
2022/07/18 09:08:16;;;;;;;4.07;3.20;;;;;;;25.17;42.83;102321.94;4718592;30;20048;-85
2022/07/18 09:10:48;;;;;;;4.43;2.88;;;;;;;25.15;42.88;102321.28;4716651;30;20063;-86
2022/07/18 09:13:14;;;;;;;5.63;3.22;;;;;;;25.17;42.64;102323.78;4718892;30;20148;-84
2022/07/18 09:15:59;;;;;;;7.45;3.30;;;;;;;25.23;42.46;102328.38;4719262;30;20485;-86
2022/07/18 09:18:34;;;;;;;5.65;3.05;;;;;;;25.23;42.54;102325.72;4714453;30;20573;-86
2022/07/18 09:21:20;;;;;;;5.00;2.70;;;;;;;25.23;42.48;102325.72;4717997;30;20041;-86
2022/07/18 09:23:48;;;;;;;3.83;2.92;;;;;;;25.24;42.29;102327.38;4717516;30;20109;-86
2022/07/18 09:26:35;;;;;;;4.95;3.20;;;;;;;25.23;42.54;102325.72;4719591;30;20048;-86
2022/07/18 09:29:01;;;;;;;6.25;3.03;;;;;;;25.20;42.58;102329.56;4718935;30;20059;-86
2022/07/18 09:31:27;;;;;;;3.40;2.70;;;;;;;25.21;42.42;102311.72;4718336;30;22459;-86
2022/07/18 09:33:54;;;;;;;4.80;2.88;;;;;;;25.21;42.78;102317.88;4733410;30;20048;-85
2022/07/18 09:36:20;;;;;;;3.63;2.80;;;;;;;25.25;42.52;102318.34;4715973;30;20049;-84
2022/07/18 09:38:45;;;;;;;6.10;3.08;;;;;;;25.26;42.85;102317.34;4713904;30;20052;-84
2022/07/18 09:41:12;;;;;;;4.93;2.60;;;;;;;25.24;42.76;102316.69;4720304;30;20062;-85
2022/07/18 09:43:38;;;;;;;5.85;3.10;;;;;;;25.22;42.98;102318.72;4721117;30;20055;-85
2022/07/18 09:46:05;;;;;;;7.43;3.13;;;;;;;25.24;43.21;102322.84;4716613;30;20047;-86
2022/07/18 09:48:30;;;;;;;4.05;2.72;;;;;;;25.24;42.95;102316.69;4717007;30;20142;-86
2022/07/18 09:51:05;;;;;;;7.43;3.10;;;;;;;25.22;42.99;102314.22;4717010;30;20045;-85
2022/07/18 09:53:35;;;;;;;4.88;2.80;;;;;;;25.28;43.02;102318.81;4715123;30;20092;-85
2022/07/18 09:56:04;;;;;;;4.28;3.05;;;;;;;25.25;42.90;102316.50;4716070;30;20084;-85
2022/07/18 09:58:32;;;;;;;4.32;2.90;;;;;;;25.20;43.33;102315.41;4723015;30;20059;-88
2022/07/18 10:01:00;;;;;;;4.32;2.63;;;;;;;25.37;42.89;102313.44;4722605;30;20044;-88
2022/07/18 10:03:26;;;;;;;4.70;2.88;;;;;;;25.43;42.68;102318.84;4723379;30;20060;-91
2022/07/18 10:05:54;;;;;;;6.93;3.50;;;;;;;25.42;42.85;102319.88;4720914;30;20065;-86
2022/07/18 10:08:22;;;;;;;4.32;2.55;;;;;;;25.30;43.23;102315.97;4718851;30;20048;-85
2022/07/18 10:10:49;;;;;;;6.20;2.92;;;;;;;25.30;42.79;102303.47;4719587;30;20575;-85
2022/07/18 10:13:17;;;;;;;5.63;2.88;;;;;;;25.32;42.93;102311.31;4730710;30;20135;-84
2022/07/18 10:15:44;;;;;;;3.60;2.58;;;;;;;25.35;43.22;102308.28;4710475;30;20521;-85
2022/07/18 10:18:14;;;;;;;5.40;3.13;;;;;;;25.30;43.07;102294.63;4726276;30;20049;-85
2022/07/18 10:20:44;;;;;;;8.15;3.22;;;;;;;25.28;43.16;102302.00;4724925;30;20044;-85
2022/07/18 10:23:19;;;;;;;4.47;2.70;;;;;;;25.36;43.10;102303.78;4721999;30;20083;-85
2022/07/18 10:26:13;;;;;;;6.05;3.20;;;;;;;25.31;43.04;102304.28;4725836;30;20037;-86
2022/07/18 10:29:00;;;;;;;9.77;3.15;;;;;;;25.36;43.06;102304.59;4727997;30;20032;-85
2022/07/18 10:31:32;;;;;;;4.18;2.70;;;;;;;25.37;43.19;102308.09;4725079;30;20201;-85
2022/07/18 10:34:07;;;;;;;3.92;2.88;;;;;;;25.35;43.15;102318.13;4719754;30;20048;-85
2022/07/18 10:36:34;;;;;;;4.45;2.63;;;;;;;25.36;43.06;102314.44;4718683;30;20139;-85
2022/07/18 10:39:10;;;;;;;5.68;2.65;;;;;;;25.37;43.14;102305.44;4722957;30;20032;-85
2022/07/18 10:41:38;;;;;;;6.70;2.95;;;;;;;25.36;42.97;102301.94;4721771;30;20932;-85
2022/07/18 10:44:23;;;;;;;6.13;3.10;;;;;;;25.37;43.24;102306.25;4730969;30;20051;-85
2022/07/18 10:47:10;;;;;;;3.50;2.60;;;;;;;25.38;42.91;102301.75;4719112;30;20128;-85
2022/07/18 10:49:48;;;;;;;4.30;2.88;;;;;;;25.38;43.13;102299.09;4723464;30;20143;-85
2022/07/18 10:52:28;;;;;;;4.68;3.10;;;;;;;25.36;43.24;102304.59;4727403;30;20059;-85
2022/07/18 10:55:02;;;;;;;6.03;2.80;;;;;;;25.38;43.33;102299.91;4734731;30;20041;-85
2022/07/18 10:57:39;;;;;;;27.98;4.00;;;;;;;25.35;43.27;102302.13;4717448;30;20051;-86
2022/07/18 11:00:13;;;;;;;4.13;2.50;;;;;;;25.39;43.25;102304.22;4721954;30;20053;-85
2022/07/18 11:02:40;;;;;;;3.70;2.55;;;;;;;25.38;43.24;102297.25;4725348;30;20055;-85
2022/07/18 11:05:26;;;;;;;3.85;2.97;;;;;;;25.34;43.48;102289.78;4729002;30;20058;-86
2022/07/18 11:07:57;;;;;;;5.45;2.50;;;;;;;25.39;43.09;102290.91;4723120;30;20060;-85
2022/07/18 11:10:42;;;;;;;4.28;2.45;;;;;;;25.39;43.16;102290.06;4726082;30;20067;-85
2022/07/18 11:13:30;;;;;;;5.20;2.90;;;;;;;25.39;43.20;102304.22;4728259;30;20059;-85
2022/07/18 11:16:13;;;;;;;4.78;2.70;;;;;;;25.41;42.89;102298.72;4722623;30;20097;-85
2022/07/18 11:18:39;;;;;;;4.13;2.50;;;;;;;25.41;43.00;102288.88;4721398;30;20045;-85
2022/07/18 11:21:23;;;;;;;4.25;2.38;;;;;;;25.39;43.24;102285.56;4723391;30;20570;-85
2022/07/18 11:23:51;;;;;;;3.88;2.33;;;;;;;25.39;42.90;102272.22;4728033;30;20151;-85
2022/07/18 11:26:19;;;;;;;4.13;3.00;;;;;;;25.42;43.21;102282.53;4727245;30;20044;-85
2022/07/18 11:28:46;;;;;;;3.97;2.47;;;;;;;25.38;43.25;102269.75;4721855;30;20645;-85